Estación Meteorológica Peña el Pijo (Robertgarden) [ 01/30/23 14:40:14 CET ]

Fecha Hora Presion(HPa) Temp (°C) Humedad % Rocio (°C) Viento ( m/s) Direccion Lluvia 1Hora(mm) Lluvia 24H(mm) LLuvia Total(mm)
2010-Mar-27 01:01:17 1014.700 6.7 69 1.4         104.63
2010-Mar-27 02:03:15 1014.400 6.8 70 1.7         104.63
2010-Mar-27 03:01:15 1014.100 6.6 70 1.5         104.63
2010-Mar-27 04:01:13 1014.200 6.3 71 1.4 0.6 SSE     104.63
2010-Mar-27 05:01:13 1014.100 6.0 72 1.4         104.63
2010-Mar-27 06:01:13 1014.600 5.4 73 0.9         104.63
2010-Mar-27 07:01:12 1015.200 5.1 75 1.0         104.63
2010-Mar-27 08:01:12 1015.700 5.9 74 1.6         104.63
2010-Mar-27 09:01:12 1016.300 9.1 63 2.4         104.63
2010-Mar-27 10:01:13 1016.200 11.9 53 2.6         104.63
2010-Mar-27 11:01:16 1016.300 14.5 45 2.6         104.63
2010-Mar-27 12:01:12 1015.900 17.8 34 1.6         104.63
2010-Mar-27 13:01:11 1015.400 20.1 30 2.0         104.63
2010-Mar-27 14:01:12 1014.700 20.9 30 2.7         104.63
2010-Mar-27 15:01:16 1014.000 20.9 30 2.7 0.5 NNE     104.63
2010-Mar-27 16:01:12 1014.000 21.5 29 2.7         104.63
2010-Mar-27 17:01:11 1014.000 19.2 30 1.3         104.63
2010-Mar-27 18:01:16 1014.400 17.9 34 1.7         104.63
2010-Mar-27 19:01:14 1014.800 15.8 38 1.4         104.63
2010-Mar-27 20:01:16 1015.300 12.5 48 1.7         104.63
2010-Mar-27 21:01:16 1016.000 9.5 59 1.9         104.63
2010-Mar-27 22:01:16 1016.600 7.3 67 1.6         104.63
2010-Mar-27 23:01:14 1016.600 5.8 74 1.5         104.63

Temperatura Máxima:21°    Temperatura Mínima:
Presión Máxima:1016.600 Hpa    Presión Mínima:1014.000 Hpa


Volver